createdAt,value
2024-04-17T00:00:23.805Z,4.40
2024-04-17T00:01:20.642Z,4.25
2024-04-17T00:02:17.419Z,4.40
2024-04-17T00:03:14.567Z,3.65
2024-04-17T00:04:11.469Z,4.82
2024-04-17T00:05:10.861Z,4.22
2024-04-17T00:06:08.679Z,3.85
2024-04-17T00:07:05.433Z,4.15
2024-04-17T00:08:02.262Z,3.67
2024-04-17T00:08:59.083Z,3.88
2024-04-17T00:09:55.935Z,4.53
2024-04-17T00:10:52.862Z,4.70
2024-04-17T00:11:49.795Z,3.65
2024-04-17T00:12:46.542Z,3.95
2024-04-17T00:13:43.373Z,4.28
2024-04-17T00:14:40.161Z,4.07
2024-04-17T00:15:36.980Z,4.32
2024-04-17T00:16:33.792Z,3.80
2024-04-17T00:17:30.851Z,3.88
2024-04-17T00:18:27.753Z,4.22
2024-04-17T00:19:24.509Z,3.90
2024-04-17T00:20:21.405Z,4.18
2024-04-17T00:21:18.166Z,4.20
2024-04-17T00:22:14.975Z,4.30
2024-04-17T00:23:11.708Z,4.13
2024-04-17T00:24:08.478Z,4.10
2024-04-17T00:25:05.400Z,4.35
2024-04-17T00:26:02.291Z,4.47
2024-04-17T00:26:59.100Z,5.13
2024-04-17T00:27:55.842Z,3.95
2024-04-17T00:28:52.629Z,4.15
2024-04-17T00:29:49.568Z,3.90
2024-04-17T00:30:47.278Z,4.80
2024-04-17T00:31:44.036Z,4.93
2024-04-17T00:32:40.850Z,4.05
2024-04-17T00:33:38.146Z,4.32
2024-04-17T00:34:35.112Z,4.53
2024-04-17T00:35:31.938Z,4.55
2024-04-17T00:36:28.709Z,4.90
2024-04-17T00:37:25.511Z,4.47
2024-04-17T00:38:22.352Z,4.68
2024-04-17T00:39:20.676Z,4.95
2024-04-17T00:40:17.469Z,4.50
2024-04-17T00:41:14.166Z,5.05
2024-04-17T00:42:10.925Z,4.80
2024-04-17T00:43:07.746Z,4.70
2024-04-17T00:44:04.598Z,5.70
2024-04-17T00:45:01.431Z,4.95
2024-04-17T00:45:58.208Z,4.72
2024-04-17T00:46:55.405Z,4.80
2024-04-17T00:47:52.549Z,4.80
2024-04-17T00:48:49.642Z,4.85
2024-04-17T00:49:46.998Z,5.22
2024-04-17T00:50:47.380Z,5.05
2024-04-17T00:51:44.365Z,5.22
2024-04-17T00:52:41.309Z,5.40
2024-04-17T00:53:39.171Z,5.28
2024-04-17T00:54:37.306Z,5.68
2024-04-17T00:55:38.396Z,5.43
2024-04-17T00:56:35.709Z,5.32
2024-04-17T00:57:33.278Z,5.70
2024-04-17T00:58:30.643Z,5.45
2024-04-17T00:59:27.459Z,5.05
2024-04-17T01:00:24.360Z,5.30
2024-04-17T01:01:21.147Z,5.45
2024-04-17T01:02:18.037Z,5.90
2024-04-17T01:03:15.232Z,5.43
2024-04-17T01:04:12.184Z,5.78
2024-04-17T01:05:08.974Z,5.55
2024-04-17T01:06:05.957Z,6.18
2024-04-17T01:07:02.782Z,5.43
2024-04-17T01:08:01.060Z,6.35
2024-04-17T01:08:57.881Z,5.95
2024-04-17T01:09:55.805Z,6.15
2024-04-17T01:11:02.940Z,5.63
2024-04-17T01:11:59.869Z,5.95
2024-04-17T01:12:56.605Z,6.10
2024-04-17T01:13:53.375Z,5.20
2024-04-17T01:14:50.285Z,5.95
2024-04-17T01:15:47.066Z,5.63
2024-04-17T01:16:44.291Z,6.25
2024-04-17T01:17:41.091Z,6.40
2024-04-17T01:18:44.501Z,6.22
2024-04-17T01:19:42.307Z,5.50
2024-04-17T01:20:39.155Z,5.82
2024-04-17T01:21:36.075Z,6.05
2024-04-17T01:22:32.866Z,5.88
2024-04-17T01:23:29.634Z,6.20
2024-04-17T01:24:26.390Z,6.32
2024-04-17T01:25:24.616Z,6.95
2024-04-17T01:26:21.380Z,7.15
2024-04-17T01:27:18.169Z,6.47
2024-04-17T01:28:14.919Z,6.45
2024-04-17T01:29:11.631Z,6.82
2024-04-17T01:30:09.640Z,6.47
2024-04-17T01:31:06.499Z,6.35
2024-04-17T01:32:03.415Z,6.32
2024-04-17T01:33:00.739Z,5.65
2024-04-17T01:33:57.712Z,6.32
2024-04-17T01:34:54.487Z,6.03
2024-04-17T01:35:51.271Z,6.63
2024-04-17T01:36:48.059Z,6.57
2024-04-17T01:37:44.777Z,6.55
2024-04-17T01:38:41.783Z,5.53
2024-04-17T01:39:38.563Z,6.82
2024-04-17T01:40:35.434Z,6.68
2024-04-17T01:41:32.233Z,6.53
2024-04-17T01:42:28.957Z,6.88
2024-04-17T01:43:26.887Z,7.05
2024-04-17T01:44:29.864Z,6.47
2024-04-17T01:45:27.349Z,6.93
2024-04-17T01:46:24.106Z,7.47
2024-04-17T01:47:20.909Z,6.63
2024-04-17T01:48:17.719Z,6.43
2024-04-17T01:49:14.435Z,6.95
2024-04-17T01:50:11.234Z,7.03
2024-04-17T01:51:07.937Z,7.07
2024-04-17T01:52:05.038Z,6.38
2024-04-17T01:53:01.768Z,6.30
2024-04-17T01:53:58.589Z,6.47
2024-04-17T01:54:55.382Z,6.47
2024-04-17T01:55:52.378Z,7.03
2024-04-17T01:56:52.741Z,7.07
2024-04-17T01:57:49.484Z,6.75
2024-04-17T01:58:46.250Z,7.72
2024-04-17T01:59:43.015Z,6.60
2024-04-17T02:00:40.232Z,6.43
2024-04-17T02:01:37.283Z,6.95
2024-04-17T02:02:34.017Z,7.13
2024-04-17T02:03:30.876Z,7.03
2024-04-17T02:04:27.884Z,7.15
2024-04-17T02:05:24.628Z,7.68
2024-04-17T02:06:21.372Z,7.38
2024-04-17T02:07:18.114Z,7.25
2024-04-17T02:08:14.993Z,7.70
2024-04-17T02:09:11.691Z,6.82
2024-04-17T02:10:08.530Z,7.47
2024-04-17T02:11:06.652Z,7.30
2024-04-17T02:12:03.796Z,7.40
2024-04-17T02:13:00.539Z,7.15
2024-04-17T02:13:57.356Z,8.02
2024-04-17T02:14:54.109Z,7.30
2024-04-17T02:15:50.824Z,6.82
2024-04-17T02:16:47.646Z,6.70
2024-04-17T02:17:44.562Z,6.60
2024-04-17T02:18:41.418Z,7.43
2024-04-17T02:19:38.190Z,7.38
2024-04-17T02:20:34.951Z,7.10
2024-04-17T02:21:31.807Z,7.10
2024-04-17T02:22:28.578Z,6.57
2024-04-17T02:23:29.660Z,7.45
2024-04-17T02:24:26.463Z,7.32
2024-04-17T02:25:23.385Z,7.25
2024-04-17T02:26:20.246Z,7.03
2024-04-17T02:27:17.061Z,6.63
2024-04-17T02:28:13.844Z,7.32
2024-04-17T02:29:10.624Z,6.82
2024-04-17T02:30:07.981Z,6.53
2024-04-17T02:31:04.892Z,7.25
2024-04-17T02:32:01.691Z,7.53
2024-04-17T02:32:58.626Z,7.30
2024-04-17T02:33:55.719Z,7.45
2024-04-17T02:34:52.558Z,7.75
2024-04-17T02:35:49.342Z,7.88
2024-04-17T02:36:46.125Z,7.57
2024-04-17T02:37:42.916Z,7.07
2024-04-17T02:38:39.649Z,7.07
2024-04-17T02:39:36.789Z,7.65
2024-04-17T02:40:33.532Z,6.93
2024-04-17T02:41:30.334Z,7.07
2024-04-17T02:42:27.073Z,6.78
2024-04-17T02:43:23.898Z,7.15
2024-04-17T02:44:20.630Z,6.78
2024-04-17T02:45:17.368Z,7.72
2024-04-17T02:46:14.209Z,7.13
2024-04-17T02:47:11.063Z,7.30
2024-04-17T02:48:08.287Z,6.90
2024-04-17T02:49:05.053Z,7.18
2024-04-17T02:50:01.878Z,7.53
2024-04-17T02:50:58.721Z,7.28
2024-04-17T02:51:55.449Z,7.07
2024-04-17T02:52:52.221Z,7.38
2024-04-17T02:53:49.106Z,7.00
2024-04-17T02:54:45.829Z,6.90
2024-04-17T02:55:42.602Z,7.05
2024-04-17T02:56:39.861Z,7.25
2024-04-17T02:57:36.614Z,6.90
2024-04-17T02:58:33.415Z,7.32
2024-04-17T02:59:30.264Z,7.20
2024-04-17T03:00:27.653Z,7.00
2024-04-17T03:01:25.252Z,6.97
2024-04-17T03:02:22.148Z,7.03
2024-04-17T03:03:19.073Z,7.20
2024-04-17T03:04:15.886Z,7.78
2024-04-17T03:05:12.773Z,7.13
2024-04-17T03:06:09.831Z,7.25
2024-04-17T03:07:06.591Z,7.57
2024-04-17T03:08:06.339Z,7.20
2024-04-17T03:09:03.098Z,7.57
2024-04-17T03:09:59.834Z,6.95
2024-04-17T03:11:00.507Z,7.15
2024-04-17T03:11:57.278Z,7.15
2024-04-17T03:12:54.002Z,7.28
2024-04-17T03:13:50.865Z,7.32
2024-04-17T03:14:47.628Z,8.20
2024-04-17T03:15:47.176Z,7.03
2024-04-17T03:16:44.138Z,6.60
2024-04-17T03:17:40.977Z,6.78
2024-04-17T03:18:37.869Z,8.02
2024-04-17T03:19:34.784Z,7.60
2024-04-17T03:20:32.898Z,7.00
2024-04-17T03:21:30.601Z,7.10
2024-04-17T03:22:27.488Z,7.40
2024-04-17T03:23:24.211Z,7.07
2024-04-17T03:24:20.939Z,7.93
2024-04-17T03:25:17.704Z,7.40
2024-04-17T03:26:14.457Z,7.20
2024-04-17T03:27:11.183Z,7.43
2024-04-17T03:28:07.925Z,6.90
2024-04-17T03:29:04.676Z,6.90
2024-04-17T03:30:02.500Z,7.57
2024-04-17T03:31:01.367Z,6.97
2024-04-17T03:32:04.246Z,7.82
2024-04-17T03:33:01.096Z,6.53
2024-04-17T03:33:57.926Z,6.93
2024-04-17T03:34:54.756Z,7.78
2024-04-17T03:35:58.946Z,6.88
2024-04-17T03:36:55.711Z,6.88
2024-04-17T03:37:52.474Z,6.47
2024-04-17T03:38:49.248Z,6.95
2024-04-17T03:39:46.036Z,6.60
2024-04-17T03:40:42.818Z,7.38
2024-04-17T03:41:39.652Z,8.05
2024-04-17T03:42:36.413Z,7.20
2024-04-17T03:43:33.184Z,7.43
2024-04-17T03:44:29.942Z,6.90
2024-04-17T03:45:26.785Z,7.28
2024-04-17T03:46:23.537Z,7.07
2024-04-17T03:47:20.304Z,7.50
2024-04-17T03:48:17.116Z,6.63
2024-04-17T03:49:13.902Z,7.13
2024-04-17T03:50:10.664Z,7.47
2024-04-17T03:51:07.413Z,7.32
2024-04-17T03:52:04.437Z,7.70
2024-04-17T03:53:01.266Z,7.70
2024-04-17T03:53:58.209Z,7.13
2024-04-17T03:54:54.979Z,7.00
2024-04-17T03:55:51.726Z,7.28
2024-04-17T03:56:48.480Z,7.20
2024-04-17T03:57:45.199Z,7.75
2024-04-17T03:58:41.915Z,7.32
2024-04-17T03:59:38.669Z,7.60
2024-04-17T04:00:35.601Z,7.13
2024-04-17T04:01:36.345Z,7.72
2024-04-17T04:02:33.203Z,8.10
2024-04-17T04:03:30.035Z,7.40
2024-04-17T04:04:26.934Z,7.53
2024-04-17T04:05:23.767Z,8.23
2024-04-17T04:06:20.545Z,7.32
2024-04-17T04:07:17.531Z,6.95
2024-04-17T04:08:14.237Z,7.50
2024-04-17T04:09:11.003Z,7.72
2024-04-17T04:10:07.877Z,8.20
2024-04-17T04:11:04.929Z,8.05
2024-04-17T04:12:01.804Z,7.93
2024-04-17T04:12:59.418Z,7.93
2024-04-17T04:13:56.197Z,8.27
2024-04-17T04:14:52.953Z,8.10
2024-04-17T04:15:55.759Z,8.43
2024-04-17T04:16:52.652Z,7.63
2024-04-17T04:17:49.829Z,7.32
2024-04-17T04:18:46.662Z,7.72
2024-04-17T04:19:44.370Z,7.88
2024-04-17T04:20:41.114Z,8.25
2024-04-17T04:21:37.964Z,9.02
2024-04-17T04:22:34.756Z,9.15
2024-04-17T04:23:31.576Z,9.13
2024-04-17T04:24:28.328Z,8.57
2024-04-17T04:25:25.076Z,9.35
2024-04-17T04:26:21.902Z,8.23
2024-04-17T04:27:18.608Z,8.50
2024-04-17T04:28:15.645Z,10.07
2024-04-17T04:29:12.428Z,9.50
2024-04-17T04:30:09.502Z,8.82
2024-04-17T04:31:06.255Z,9.13
2024-04-17T04:32:03.163Z,8.73
2024-04-17T04:33:00.732Z,9.07
2024-04-17T04:33:57.582Z,9.15
2024-04-17T04:34:54.390Z,9.43
2024-04-17T04:35:51.234Z,9.90
2024-04-17T04:36:48.084Z,8.50
2024-04-17T04:37:44.934Z,9.00
2024-04-17T04:38:41.942Z,8.45
2024-04-17T04:39:38.707Z,8.43
2024-04-17T04:40:35.496Z,10.40
2024-04-17T04:41:32.307Z,9.63
2024-04-17T04:42:29.073Z,9.35
2024-04-17T04:43:25.890Z,9.50
2024-04-17T04:44:22.690Z,9.85
2024-04-17T04:45:19.426Z,9.55
2024-04-17T04:46:16.274Z,8.60
2024-04-17T04:47:14.755Z,9.93
2024-04-17T04:48:11.983Z,9.60
2024-04-17T04:49:08.794Z,9.90
2024-04-17T04:50:05.756Z,8.85
2024-04-17T04:51:02.669Z,9.35
2024-04-17T04:51:59.497Z,9.50
2024-04-17T04:52:56.232Z,9.68
2024-04-17T04:53:52.945Z,9.52
2024-04-17T04:54:49.724Z,9.52
2024-04-17T04:55:59.952Z,9.23
2024-04-17T04:56:56.703Z,9.98
2024-04-17T04:57:53.487Z,9.18
2024-04-17T04:58:50.229Z,9.95
2024-04-17T04:59:47.357Z,8.70
2024-04-17T05:00:44.095Z,8.68
2024-04-17T05:01:40.886Z,8.30
2024-04-17T05:02:37.756Z,8.77
2024-04-17T05:03:34.517Z,9.10
2024-04-17T05:04:31.451Z,9.57
2024-04-17T05:05:28.219Z,8.75
2024-04-17T05:06:25.002Z,9.63
2024-04-17T05:07:21.964Z,9.38
2024-04-17T05:08:19.964Z,8.70
2024-04-17T05:09:16.744Z,8.80
2024-04-17T05:10:13.486Z,8.38
2024-04-17T05:11:13.203Z,8.55
2024-04-17T05:12:10.012Z,8.57
2024-04-17T05:13:06.934Z,8.80
2024-04-17T05:14:03.768Z,8.05
2024-04-17T05:15:00.554Z,8.45
2024-04-17T05:15:57.283Z,9.00
2024-04-17T05:16:54.160Z,8.10
2024-04-17T05:17:51.024Z,8.20
2024-04-17T05:18:47.891Z,8.10
2024-04-17T05:19:44.700Z,8.75
2024-04-17T05:20:41.474Z,7.90
2024-04-17T05:21:38.209Z,8.32
2024-04-17T05:22:35.294Z,7.45
2024-04-17T05:23:32.048Z,7.75
2024-04-17T05:24:29.761Z,7.35
2024-04-17T05:25:27.922Z,7.40
2024-04-17T05:26:24.883Z,7.25
2024-04-17T05:27:21.629Z,7.80
2024-04-17T05:28:18.364Z,6.93
2024-04-17T05:29:15.122Z,7.63
2024-04-17T05:30:12.384Z,8.00
2024-04-17T05:31:09.192Z,7.78
2024-04-17T05:32:06.303Z,7.53
2024-04-17T05:33:03.477Z,7.88
2024-04-17T05:34:00.264Z,8.07
2024-04-17T05:34:57.163Z,7.45
2024-04-17T05:35:53.947Z,8.95
2024-04-17T05:36:50.650Z,8.82
2024-04-17T05:37:47.353Z,7.35
2024-04-17T05:38:44.155Z,5.22
2024-04-17T05:39:41.028Z,5.07
2024-04-17T05:40:38.145Z,6.25
2024-04-17T05:41:34.889Z,5.97
2024-04-17T05:42:31.718Z,6.57
2024-04-17T05:43:28.488Z,6.18
2024-04-17T05:44:25.279Z,6.38
2024-04-17T05:45:22.187Z,6.15
2024-04-17T05:46:18.928Z,7.80
2024-04-17T05:47:15.744Z,7.20
2024-04-17T05:48:12.744Z,6.78
2024-04-17T05:49:09.581Z,7.85
2024-04-17T05:50:09.060Z,6.53
2024-04-17T05:51:06.274Z,7.03
2024-04-17T05:52:04.676Z,6.85
2024-04-17T05:53:01.458Z,7.10
2024-04-17T05:53:58.211Z,6.68
2024-04-17T05:54:55.054Z,8.82
2024-04-17T05:55:51.888Z,7.53
2024-04-17T05:56:48.766Z,7.65
2024-04-17T05:57:45.571Z,6.97
2024-04-17T05:58:42.392Z,6.63
2024-04-17T05:59:39.290Z,7.13
2024-04-17T06:00:37.636Z,7.90
2024-04-17T06:01:34.485Z,7.20
2024-04-17T06:02:31.255Z,7.70
2024-04-17T06:03:27.981Z,6.53
2024-04-17T06:04:25.357Z,6.22
2024-04-17T06:05:22.134Z,6.72
2024-04-17T06:06:18.920Z,5.85
2024-04-17T06:07:15.697Z,6.03
2024-04-17T06:08:12.551Z,5.63
2024-04-17T06:09:09.407Z,6.28
2024-04-17T06:10:06.906Z,6.05
2024-04-17T06:11:06.557Z,6.05
2024-04-17T06:12:06.579Z,5.60
2024-04-17T06:13:03.302Z,5.95
2024-04-17T06:14:00.376Z,5.57
2024-04-17T06:14:57.213Z,5.43
2024-04-17T06:15:54.349Z,5.47
2024-04-17T06:16:51.126Z,5.85
2024-04-17T06:17:47.998Z,5.30
2024-04-17T06:18:44.996Z,5.90
2024-04-17T06:19:41.782Z,5.50
2024-04-17T06:20:38.538Z,5.22
2024-04-17T06:21:35.266Z,5.28
2024-04-17T06:22:32.066Z,5.50
2024-04-17T06:23:28.943Z,5.28
2024-04-17T06:24:25.674Z,5.43
2024-04-17T06:25:22.419Z,4.95
2024-04-17T06:26:19.262Z,5.00
2024-04-17T06:27:16.164Z,4.95
2024-04-17T06:28:12.942Z,5.60
2024-04-17T06:29:09.753Z,5.10
2024-04-17T06:30:07.127Z,5.75
2024-04-17T06:31:06.894Z,5.57
2024-04-17T06:32:03.861Z,5.65
2024-04-17T06:33:00.838Z,6.40
2024-04-17T06:33:57.732Z,5.50
2024-04-17T06:34:54.567Z,5.75
2024-04-17T06:35:54.264Z,6.05
2024-04-17T06:36:52.350Z,5.75
2024-04-17T06:37:49.161Z,5.40
2024-04-17T06:38:46.278Z,5.72
2024-04-17T06:39:43.089Z,5.70
2024-04-17T06:40:39.880Z,7.15
2024-04-17T06:41:43.441Z,6.30
2024-04-17T06:42:48.687Z,6.68
2024-04-17T06:43:45.479Z,5.70
2024-04-17T06:44:42.271Z,6.45
2024-04-17T06:45:39.034Z,6.93
2024-04-17T06:46:35.845Z,7.15
2024-04-17T06:47:32.617Z,6.65
2024-04-17T06:48:29.469Z,7.63
2024-04-17T06:49:26.873Z,6.50
2024-04-17T06:50:23.800Z,5.75
2024-04-17T06:51:20.522Z,6.32
2024-04-17T06:52:17.382Z,6.00
2024-04-17T06:53:14.106Z,6.75
2024-04-17T06:54:10.815Z,6.68
2024-04-17T06:55:07.663Z,7.22
2024-04-17T06:56:04.641Z,7.50
2024-04-17T06:57:01.474Z,6.70
2024-04-17T06:57:58.195Z,7.40
2024-04-17T06:58:55.304Z,7.63
2024-04-17T06:59:52.085Z,7.03
2024-04-17T07:00:48.921Z,6.57
2024-04-17T07:01:45.934Z,6.15
2024-04-17T07:02:49.135Z,6.50
2024-04-17T07:03:49.331Z,5.07
2024-04-17T07:04:46.246Z,4.90
2024-04-17T07:05:43.026Z,5.63
2024-04-17T07:06:41.865Z,4.60
2024-04-17T07:07:38.708Z,5.22
2024-04-17T07:08:35.579Z,5.22
2024-04-17T07:09:32.321Z,5.40
2024-04-17T07:10:29.136Z,6.00
2024-04-17T07:11:25.914Z,6.00
2024-04-17T07:12:22.665Z,6.03
2024-04-17T07:13:19.505Z,5.75
2024-04-17T07:14:16.292Z,6.03
2024-04-17T07:15:13.043Z,5.15
2024-04-17T07:16:10.533Z,5.50
2024-04-17T07:17:07.329Z,5.40
2024-04-17T07:18:04.250Z,5.70
2024-04-17T07:19:01.265Z,5.30
2024-04-17T07:19:58.163Z,5.15
2024-04-17T07:20:55.152Z,4.85
2024-04-17T07:21:52.610Z,5.32
2024-04-17T07:22:49.454Z,5.20
2024-04-17T07:23:46.162Z,5.22
2024-04-17T07:24:43.044Z,4.07
2024-04-17T07:25:39.815Z,3.40
2024-04-17T07:26:36.646Z,3.78
2024-04-17T07:27:33.436Z,3.38
2024-04-17T07:28:30.193Z,3.55
2024-04-17T07:29:27.062Z,3.10
2024-04-17T07:30:23.843Z,2.90
2024-04-17T07:31:20.636Z,2.88
2024-04-17T07:32:17.464Z,3.22
2024-04-17T07:33:14.466Z,2.60
2024-04-17T07:34:11.352Z,3.25
2024-04-17T07:35:08.152Z,2.70
2024-04-17T07:36:05.201Z,2.20
2024-04-17T07:37:01.945Z,2.38
2024-04-17T07:37:58.971Z,2.40
2024-04-17T07:38:55.728Z,2.00
2024-04-17T07:39:52.502Z,2.30
2024-04-17T07:40:57.418Z,2.17
2024-04-17T07:41:54.286Z,2.35
2024-04-17T07:42:51.069Z,2.28
2024-04-17T07:43:47.850Z,2.45
2024-04-17T07:44:48.323Z,2.28
2024-04-17T07:45:52.146Z,2.53
2024-04-17T07:46:49.493Z,2.30
2024-04-17T07:47:46.382Z,2.20
2024-04-17T07:48:43.226Z,2.10
2024-04-17T07:49:40.070Z,2.42
2024-04-17T07:50:36.829Z,2.60
2024-04-17T07:51:33.621Z,2.13
2024-04-17T07:52:30.526Z,2.50
2024-04-17T07:53:27.279Z,2.67
2024-04-17T07:54:24.147Z,2.58
2024-04-17T07:55:20.890Z,3.05
2024-04-17T07:56:17.611Z,3.10
2024-04-17T07:57:14.371Z,3.40
2024-04-17T07:58:11.130Z,3.20
2024-04-17T07:59:08.457Z,3.03
2024-04-17T08:00:05.648Z,2.65
2024-04-17T08:01:02.527Z,3.10
2024-04-17T08:01:59.319Z,2.90
2024-04-17T08:02:56.144Z,3.13
2024-04-17T08:03:54.553Z,2.75
2024-04-17T08:04:51.793Z,2.70
2024-04-17T08:05:48.684Z,2.90
2024-04-17T08:06:45.434Z,2.97
2024-04-17T08:07:43.371Z,3.33
2024-04-17T08:08:42.236Z,2.70
2024-04-17T08:09:38.980Z,2.78
2024-04-17T08:10:36.319Z,2.67
2024-04-17T08:11:38.321Z,2.78
2024-04-17T08:12:37.683Z,2.95
2024-04-17T08:13:34.462Z,2.63
2024-04-17T08:14:31.265Z,3.33
2024-04-17T08:15:28.032Z,3.00
2024-04-17T08:16:24.827Z,3.00
2024-04-17T08:17:21.684Z,3.00
2024-04-17T08:18:18.597Z,2.72
2024-04-17T08:19:16.025Z,2.50
2024-04-17T08:20:12.864Z,3.13
2024-04-17T08:21:09.704Z,2.90
2024-04-17T08:22:06.513Z,2.72
2024-04-17T08:23:03.653Z,2.90
2024-04-17T08:24:00.461Z,2.65
2024-04-17T08:24:57.195Z,2.58
2024-04-17T08:25:54.059Z,2.80
2024-04-17T08:26:50.841Z,2.70
2024-04-17T08:27:47.556Z,2.75
2024-04-17T08:28:44.314Z,2.50
2024-04-17T08:29:41.118Z,2.78
2024-04-17T08:30:37.803Z,2.47
2024-04-17T08:31:34.665Z,2.42
2024-04-17T08:32:31.809Z,2.47
2024-04-17T08:33:29.115Z,2.70
2024-04-17T08:34:26.092Z,2.78
2024-04-17T08:35:22.985Z,2.50
2024-04-17T08:36:19.800Z,2.40
2024-04-17T08:37:16.632Z,2.50
2024-04-17T08:38:13.593Z,2.42
2024-04-17T08:39:10.472Z,2.33
2024-04-17T08:40:08.976Z,2.63
2024-04-17T08:41:05.826Z,2.60
2024-04-17T08:42:07.203Z,2.90
2024-04-17T08:43:08.110Z,2.55
2024-04-17T08:44:13.865Z,2.40
2024-04-17T08:45:15.444Z,2.67
2024-04-17T08:46:17.511Z,2.70
2024-04-17T08:47:16.197Z,2.30
2024-04-17T08:48:13.237Z,2.30
2024-04-17T08:49:12.564Z,2.78
2024-04-17T08:50:10.872Z,2.55
2024-04-17T08:51:12.143Z,2.70
2024-04-17T08:52:10.695Z,2.38
2024-04-17T08:53:08.092Z,2.83
2024-04-17T08:54:06.314Z,2.35
2024-04-17T08:55:07.165Z,2.30
2024-04-17T08:56:04.552Z,2.58
2024-04-17T08:57:01.405Z,3.15
2024-04-17T08:57:58.770Z,2.40
2024-04-17T08:58:55.996Z,2.50
2024-04-17T08:59:52.752Z,2.10
2024-04-17T09:00:52.938Z,2.03
2024-04-17T09:01:50.937Z,2.25
2024-04-17T09:02:49.280Z,1.95
2024-04-17T09:03:47.364Z,2.13
2024-04-17T09:04:48.391Z,2.10
2024-04-17T09:05:46.134Z,2.08
2024-04-17T09:06:43.838Z,2.15
2024-04-17T09:07:41.804Z,2.95
2024-04-17T09:08:39.280Z,3.30
2024-04-17T09:09:38.723Z,2.20
2024-04-17T09:10:35.608Z,2.22
2024-04-17T09:11:33.628Z,2.25
2024-04-17T09:12:32.500Z,1.98
2024-04-17T09:13:29.331Z,2.10
2024-04-17T09:15:23.525Z,2.08
2024-04-17T09:16:20.279Z,1.88
2024-04-17T09:17:17.059Z,2.00
2024-04-17T09:18:14.489Z,2.13
2024-04-17T09:19:11.377Z,2.10
2024-04-17T09:20:08.713Z,2.10
2024-04-17T09:21:06.478Z,2.50
2024-04-17T09:22:03.363Z,1.70
2024-04-17T09:23:00.301Z,2.20
2024-04-17T09:23:57.117Z,2.15
2024-04-17T09:24:53.840Z,2.10
2024-04-17T09:25:50.584Z,2.05
2024-04-17T09:26:47.385Z,1.77
2024-04-17T09:27:46.572Z,2.03
2024-04-17T09:28:43.616Z,2.08
2024-04-17T09:29:40.492Z,2.10
2024-04-17T09:30:38.008Z,1.92
2024-04-17T09:31:34.834Z,1.88
2024-04-17T09:32:31.947Z,2.00
2024-04-17T09:33:29.276Z,1.95
2024-04-17T09:34:26.167Z,2.00
2024-04-17T09:35:24.005Z,1.88
2024-04-17T09:36:22.560Z,1.52
2024-04-17T09:37:19.533Z,1.83
2024-04-17T09:38:16.913Z,1.75
2024-04-17T09:39:13.751Z,2.20
2024-04-17T09:40:11.932Z,1.70
2024-04-17T09:41:12.757Z,1.73
2024-04-17T09:42:13.641Z,2.00
2024-04-17T09:43:19.565Z,1.70
2024-04-17T09:44:22.150Z,1.60
2024-04-17T09:45:23.558Z,1.48
2024-04-17T09:46:22.974Z,2.00
2024-04-17T09:47:20.791Z,1.70
2024-04-17T09:48:17.584Z,1.80
2024-04-17T09:49:23.979Z,1.70
2024-04-17T09:50:26.519Z,1.70
2024-04-17T09:52:23.915Z,1.88
2024-04-17T09:53:31.516Z,2.00
2024-04-17T09:54:33.968Z,1.73
2024-04-17T09:55:32.439Z,1.90
2024-04-17T09:56:29.741Z,1.63
2024-04-17T09:57:26.954Z,1.90
2024-04-17T09:58:24.581Z,2.00
2024-04-17T09:59:22.888Z,2.17
2024-04-17T10:00:20.063Z,1.83
2024-04-17T10:01:18.185Z,1.80
2024-04-17T10:02:17.328Z,1.77
2024-04-17T10:03:16.744Z,2.00
2024-04-17T10:04:16.789Z,2.05
2024-04-17T10:05:15.444Z,2.30
2024-04-17T10:06:12.590Z,1.92
2024-04-17T10:07:12.694Z,2.08
2024-04-17T10:08:09.840Z,1.90
2024-04-17T10:09:07.641Z,2.15
2024-04-17T10:10:05.659Z,2.08
2024-04-17T10:11:02.923Z,1.90
2024-04-17T10:12:01.603Z,2.25
2024-04-17T10:13:01.193Z,2.20
2024-04-17T10:13:59.447Z,2.10
2024-04-17T10:14:58.336Z,1.88
2024-04-17T10:15:55.935Z,2.20
2024-04-17T10:16:53.999Z,1.98
2024-04-17T10:17:51.169Z,2.40
2024-04-17T10:18:48.208Z,2.05
2024-04-17T10:19:54.516Z,2.00
2024-04-17T10:20:55.028Z,2.40
2024-04-17T10:21:55.747Z,2.33
2024-04-17T10:22:52.549Z,2.22
2024-04-17T10:24:02.180Z,1.85
2024-04-17T10:25:06.651Z,2.05
2024-04-17T10:26:03.476Z,2.53
2024-04-17T10:27:05.680Z,2.35
2024-04-17T10:28:04.384Z,2.13
2024-04-17T10:29:01.206Z,2.20
2024-04-17T10:30:14.430Z,2.40
2024-04-17T10:32:15.541Z,2.30
2024-04-17T10:33:24.957Z,2.33
2024-04-17T10:34:21.808Z,2.33
2024-04-17T10:35:19.433Z,2.35
2024-04-17T10:36:16.328Z,2.58
2024-04-17T10:37:13.987Z,2.53
2024-04-17T10:38:23.378Z,2.20
2024-04-17T10:39:28.417Z,2.38
2024-04-17T10:40:26.156Z,2.30
2024-04-17T10:41:29.643Z,2.50
2024-04-17T10:42:26.902Z,2.22
2024-04-17T10:43:24.901Z,2.22
2024-04-17T10:44:24.613Z,2.67
2024-04-17T10:45:21.871Z,2.50
2024-04-17T10:46:23.094Z,2.47
2024-04-17T10:47:30.808Z,2.20
2024-04-17T10:48:27.755Z,2.67
2024-04-17T10:49:24.528Z,2.60
2024-04-17T10:50:21.338Z,2.20
2024-04-17T10:51:20.089Z,2.10
2024-04-17T10:52:17.156Z,2.20
2024-04-17T10:53:14.969Z,2.20
2024-04-17T10:54:13.159Z,2.10
2024-04-17T10:55:11.669Z,2.38
2024-04-17T10:56:11.818Z,2.38
2024-04-17T10:57:10.172Z,2.22
2024-04-17T10:58:08.211Z,2.40
2024-04-17T10:59:05.564Z,2.45
2024-04-17T11:00:02.581Z,2.20
2024-04-17T11:01:05.059Z,2.40
2024-04-17T11:02:59.763Z,2.83
2024-04-17T11:03:56.551Z,3.22
2024-04-17T11:04:53.521Z,3.88
2024-04-17T11:05:50.380Z,3.78
2024-04-17T11:06:47.341Z,3.97
2024-04-17T11:07:44.137Z,3.85
2024-04-17T11:08:48.156Z,3.90
2024-04-17T11:09:51.935Z,3.95
2024-04-17T11:10:49.766Z,4.00
2024-04-17T11:11:51.509Z,3.95
2024-04-17T11:12:48.412Z,3.90
2024-04-17T11:13:45.429Z,3.90
2024-04-17T11:14:42.724Z,4.00
2024-04-17T11:15:39.408Z,3.90
2024-04-17T11:16:37.634Z,3.75
2024-04-17T11:17:34.606Z,3.90
2024-04-17T11:18:33.224Z,4.40
2024-04-17T11:19:30.116Z,3.75
2024-04-17T11:20:27.055Z,5.32
2024-04-17T11:21:25.245Z,5.28
2024-04-17T11:22:22.147Z,4.28
2024-04-17T11:23:18.974Z,3.85
2024-04-17T11:24:19.604Z,3.47
2024-04-17T11:25:16.563Z,3.85
2024-04-17T11:26:14.332Z,4.30
2024-04-17T11:27:11.371Z,3.80
2024-04-17T11:28:13.414Z,4.32
2024-04-17T11:29:29.931Z,4.18
2024-04-17T11:30:33.790Z,3.90
2024-04-17T11:31:30.624Z,4.30
2024-04-17T11:32:29.310Z,3.80
2024-04-17T11:33:29.469Z,4.07
2024-04-17T11:34:26.645Z,3.97
2024-04-17T11:35:23.404Z,4.18
2024-04-17T11:36:20.167Z,3.60
2024-04-17T11:37:17.180Z,3.72
2024-04-17T11:38:14.889Z,3.30
2024-04-17T11:39:11.807Z,3.65
2024-04-17T11:40:09.525Z,3.55
2024-04-17T11:41:06.458Z,3.60
2024-04-17T11:42:04.232Z,3.53
2024-04-17T11:43:00.956Z,3.67
2024-04-17T11:43:57.719Z,3.10
2024-04-17T11:44:56.913Z,3.58
2024-04-17T11:45:54.569Z,3.58
2024-04-17T11:46:51.894Z,3.65
2024-04-17T11:47:48.790Z,3.70
2024-04-17T11:48:45.898Z,2.85
2024-04-17T11:49:43.864Z,3.35
2024-04-17T11:50:40.935Z,3.40
2024-04-17T11:51:37.921Z,3.30
2024-04-17T11:52:34.731Z,3.13
2024-04-17T11:53:31.598Z,3.10
2024-04-17T11:54:28.686Z,2.90
2024-04-17T11:55:25.599Z,2.63
2024-04-17T11:56:22.463Z,2.95
2024-04-17T11:57:19.539Z,3.40
2024-04-17T11:58:16.317Z,3.35
2024-04-17T11:59:13.089Z,3.30
2024-04-17T12:00:10.425Z,2.55
2024-04-17T12:01:08.201Z,3.08
2024-04-17T12:02:05.273Z,3.38
2024-04-17T12:03:02.135Z,3.63
2024-04-17T12:03:59.099Z,3.72
2024-04-17T12:04:55.991Z,3.50
2024-04-17T12:05:53.989Z,3.22
2024-04-17T12:06:53.381Z,3.15
2024-04-17T12:07:50.230Z,4.00
2024-04-17T12:08:47.434Z,3.50
2024-04-17T12:09:50.515Z,3.22
2024-04-17T12:10:49.384Z,3.72
2024-04-17T12:11:46.354Z,3.50
2024-04-17T12:12:43.062Z,3.30
2024-04-17T12:13:39.937Z,3.17
2024-04-17T12:14:36.762Z,3.45
2024-04-17T12:15:33.560Z,3.30
2024-04-17T12:16:30.546Z,3.15
2024-04-17T12:17:27.447Z,3.70
2024-04-17T12:18:24.229Z,3.53
2024-04-17T12:19:20.974Z,2.88
2024-04-17T12:20:17.840Z,2.83
2024-04-17T12:21:14.616Z,3.25
2024-04-17T12:22:11.379Z,3.05
2024-04-17T12:23:08.228Z,3.20
2024-04-17T12:24:09.769Z,2.72
2024-04-17T12:25:25.433Z,3.03
2024-04-17T12:26:40.920Z,3.05
2024-04-17T12:27:37.658Z,3.42
2024-04-17T12:28:34.920Z,3.65
2024-04-17T12:29:31.803Z,3.13
2024-04-17T12:30:28.629Z,3.40
2024-04-17T12:31:25.490Z,2.88
2024-04-17T12:32:22.493Z,3.05
2024-04-17T12:33:19.325Z,3.13
2024-04-17T12:34:16.218Z,2.97
2024-04-17T12:35:14.553Z,2.75
2024-04-17T12:36:11.418Z,2.53
2024-04-17T12:37:08.345Z,3.05
2024-04-17T12:38:05.453Z,3.03
2024-04-17T12:39:02.566Z,2.90
2024-04-17T12:39:59.309Z,2.67
2024-04-17T12:40:57.297Z,2.83
2024-04-17T12:41:54.078Z,2.60
2024-04-17T12:42:50.904Z,3.05
2024-04-17T12:43:47.725Z,3.13
2024-04-17T12:44:44.583Z,2.70
2024-04-17T12:45:41.387Z,2.60
2024-04-17T12:46:38.424Z,2.67
2024-04-17T12:47:35.303Z,3.17
2024-04-17T12:48:32.189Z,3.03
2024-04-17T12:49:29.048Z,2.75
2024-04-17T12:50:26.014Z,2.50
2024-04-17T12:51:22.811Z,2.60